sensor_id;sensor_type;location;lat;lon;timestamp;pressure;altitude;pressure_sealevel;temperature;humidity
3102;BME280;1561;42.666;23.392;2022-11-09T00:01:48;95808.06;;;8.24;100.00
3102;BME280;1561;42.666;23.392;2022-11-09T00:04:19;95813.16;;;8.24;100.00
3102;BME280;1561;42.666;23.392;2022-11-09T00:06:51;95812.69;;;8.32;100.00
3102;BME280;1561;42.666;23.392;2022-11-09T00:09:20;95822.94;;;8.44;100.00
3102;BME280;1561;42.666;23.392;2022-11-09T00:11:48;95698.81;;;7.68;100.00
3102;BME280;1561;42.666;23.392;2022-11-09T00:14:15;95813.41;;;8.34;100.00
3102;BME280;1561;42.666;23.392;2022-11-09T00:16:45;95824.16;;;8.25;100.00
3102;BME280;1561;42.666;23.392;2022-11-09T00:19:19;95819.97;;;8.10;100.00
3102;BME280;1561;42.666;23.392;2022-11-09T00:21:47;95816.72;;;8.08;100.00
3102;BME280;1561;42.666;23.392;2022-11-09T00:24:21;95792.38;;;8.04;100.00
3102;BME280;1561;42.666;23.392;2022-11-09T00:26:49;95803.28;;;7.92;100.00
3102;BME280;1561;42.666;23.392;2022-11-09T00:29:16;95812.47;;;7.94;100.00
3102;BME280;1561;42.666;23.392;2022-11-09T00:31:49;95816.47;;;7.84;100.00
3102;BME280;1561;42.666;23.392;2022-11-09T00:34:15;95821.44;;;8.00;100.00
3102;BME280;1561;42.666;23.392;2022-11-09T00:36:45;95794.53;;;7.69;100.00
3102;BME280;1561;42.666;23.392;2022-11-09T00:39:12;95807.78;;;7.74;100.00
3102;BME280;1561;42.666;23.392;2022-11-09T00:41:42;95808.94;;;7.83;100.00
3102;BME280;1561;42.666;23.392;2022-11-09T00:44:09;95811.94;;;7.89;100.00
3102;BME280;1561;42.666;23.392;2022-11-09T00:46:38;95805.84;;;7.78;100.00
3102;BME280;1561;42.666;23.392;2022-11-09T00:49:05;95810.31;;;7.88;100.00
3102;BME280;1561;42.666;23.392;2022-11-09T00:51:35;95805.66;;;7.95;100.00
3102;BME280;1561;42.666;23.392;2022-11-09T00:54:08;95806.22;;;7.86;100.00
3102;BME280;1561;42.666;23.392;2022-11-09T00:56:35;95803.75;;;7.84;100.00
3102;BME280;1561;42.666;23.392;2022-11-09T00:59:12;95688.25;;;7.20;100.00
3102;BME280;1561;42.666;23.392;2022-11-09T01:01:39;95808.50;;;7.76;100.00
3102;BME280;1561;42.666;23.392;2022-11-09T01:04:06;95813.50;;;7.78;100.00
3102;BME280;1561;42.666;23.392;2022-11-09T01:06:33;95803.78;;;7.70;100.00
3102;BME280;1561;42.666;23.392;2022-11-09T01:09:05;95788.25;;;7.61;100.00
3102;BME280;1561;42.666;23.392;2022-11-09T01:11:37;95797.31;;;7.79;100.00
3102;BME280;1561;42.666;23.392;2022-11-09T01:14:05;95819.66;;;7.88;100.00
3102;BME280;1561;42.666;23.392;2022-11-09T01:16:33;95805.94;;;8.04;100.00
3102;BME280;1561;42.666;23.392;2022-11-09T01:19:05;95805.56;;;7.96;100.00
3102;BME280;1561;42.666;23.392;2022-11-09T01:21:34;95808.91;;;8.11;100.00
3102;BME280;1561;42.666;23.392;2022-11-09T01:24:01;95810.78;;;8.35;100.00
3102;BME280;1561;42.666;23.392;2022-11-09T01:26:29;95780.47;;;8.04;100.00
3102;BME280;1561;42.666;23.392;2022-11-09T01:28:58;95803.06;;;8.37;100.00
3102;BME280;1561;42.666;23.392;2022-11-09T01:31:27;95796.47;;;8.47;100.00
3102;BME280;1561;42.666;23.392;2022-11-09T01:33:56;95802.31;;;8.61;100.00
3102;BME280;1561;42.666;23.392;2022-11-09T01:36:24;95799.13;;;8.58;100.00
3102;BME280;1561;42.666;23.392;2022-11-09T01:38:51;95797.16;;;8.75;100.00
3102;BME280;1561;42.666;23.392;2022-11-09T01:41:24;95792.38;;;8.83;100.00
3102;BME280;1561;42.666;23.392;2022-11-09T01:44:07;95797.50;;;8.96;100.00
3102;BME280;1561;42.666;23.392;2022-11-09T01:46:42;95790.97;;;8.92;100.00
3102;BME280;1561;42.666;23.392;2022-11-09T01:49:14;95793.75;;;9.02;100.00
3102;BME280;1561;42.666;23.392;2022-11-09T01:51:49;95795.59;;;9.12;100.00
3102;BME280;1561;42.666;23.392;2022-11-09T01:54:26;95594.34;;;8.10;100.00
3102;BME280;1561;42.666;23.392;2022-11-09T01:56:58;95780.47;;;9.22;100.00
3102;BME280;1561;42.666;23.392;2022-11-09T01:59:30;95660.00;;;8.57;100.00
3102;BME280;1561;42.666;23.392;2022-11-09T02:02:01;95688.66;;;8.73;100.00
3102;BME280;1561;42.666;23.392;2022-11-09T02:04:37;95787.31;;;9.34;100.00
3102;BME280;1561;42.666;23.392;2022-11-09T02:07:06;95779.88;;;9.31;100.00
3102;BME280;1561;42.666;23.392;2022-11-09T02:09:38;95788.25;;;9.45;100.00
3102;BME280;1561;42.666;23.392;2022-11-09T02:12:08;95757.97;;;9.16;100.00
3102;BME280;1561;42.666;23.392;2022-11-09T02:14:39;95791.50;;;9.47;100.00
3102;BME280;1561;42.666;23.392;2022-11-09T02:17:14;95793.63;;;9.41;100.00
3102;BME280;1561;42.666;23.392;2022-11-09T02:19:41;95791.63;;;9.46;100.00
3102;BME280;1561;42.666;23.392;2022-11-09T02:22:11;95795.59;;;9.50;100.00
3102;BME280;1561;42.666;23.392;2022-11-09T02:24:39;95795.69;;;9.48;100.00
3102;BME280;1561;42.666;23.392;2022-11-09T02:27:07;95789.03;;;9.58;100.00
3102;BME280;1561;42.666;23.392;2022-11-09T02:29:37;95809.03;;;9.52;100.00
3102;BME280;1561;42.666;23.392;2022-11-09T02:32:09;95716.78;;;9.09;100.00
3102;BME280;1561;42.666;23.392;2022-11-09T02:34:39;95804.16;;;9.61;100.00
3102;BME280;1561;42.666;23.392;2022-11-09T02:37:06;95794.88;;;9.35;100.00
3102;BME280;1561;42.666;23.392;2022-11-09T02:39:35;95802.00;;;9.55;100.00
3102;BME280;1561;42.666;23.392;2022-11-09T02:42:08;95803.72;;;9.67;100.00
3102;BME280;1561;42.666;23.392;2022-11-09T02:44:39;95794.47;;;9.41;100.00
3102;BME280;1561;42.666;23.392;2022-11-09T02:47:07;95792.31;;;9.48;100.00
3102;BME280;1561;42.666;23.392;2022-11-09T02:49:36;95700.47;;;8.86;100.00
3102;BME280;1561;42.666;23.392;2022-11-09T02:52:03;95791.50;;;9.35;100.00
3102;BME280;1561;42.666;23.392;2022-11-09T02:54:30;95799.47;;;9.43;100.00
3102;BME280;1561;42.666;23.392;2022-11-09T02:57:00;95798.97;;;9.38;100.00
3102;BME280;1561;42.666;23.392;2022-11-09T02:59:27;95783.75;;;9.24;100.00
3102;BME280;1561;42.666;23.392;2022-11-09T03:01:55;95796.50;;;9.24;100.00
3102;BME280;1561;42.666;23.392;2022-11-09T03:04:22;95808.66;;;9.33;100.00
3102;BME280;1561;42.666;23.392;2022-11-09T03:06:52;95798.84;;;9.27;100.00
3102;BME280;1561;42.666;23.392;2022-11-09T03:09:20;95813.63;;;9.22;100.00
3102;BME280;1561;42.666;23.392;2022-11-09T03:11:48;95796.47;;;9.11;100.00
3102;BME280;1561;42.666;23.392;2022-11-09T03:14:17;95801.38;;;9.02;100.00
3102;BME280;1561;42.666;23.392;2022-11-09T03:16:44;95808.19;;;8.88;100.00
3102;BME280;1561;42.666;23.392;2022-11-09T03:19:15;95807.97;;;8.79;100.00
3102;BME280;1561;42.666;23.392;2022-11-09T03:21:44;95811.13;;;8.82;100.00
3102;BME280;1561;42.666;23.392;2022-11-09T03:24:12;95805.38;;;8.66;100.00
3102;BME280;1561;42.666;23.392;2022-11-09T03:26:39;95814.91;;;8.77;100.00
3102;BME280;1561;42.666;23.392;2022-11-09T03:29:08;95760.47;;;8.39;100.00
3102;BME280;1561;42.666;23.392;2022-11-09T03:31:38;95809.81;;;8.50;100.00
3102;BME280;1561;42.666;23.392;2022-11-09T03:34:05;95806.91;;;8.42;100.00
3102;BME280;1561;42.666;23.392;2022-11-09T03:36:32;95809.50;;;8.28;100.00
3102;BME280;1561;42.666;23.392;2022-11-09T03:38:59;95811.72;;;8.20;100.00
3102;BME280;1561;42.666;23.392;2022-11-09T03:41:28;95812.25;;;8.25;100.00
3102;BME280;1561;42.666;23.392;2022-11-09T03:43:55;95804.09;;;8.20;100.00
3102;BME280;1561;42.666;23.392;2022-11-09T03:46:23;95809.00;;;8.23;100.00
3102;BME280;1561;42.666;23.392;2022-11-09T03:48:53;95823.59;;;8.34;100.00
3102;BME280;1561;42.666;23.392;2022-11-09T03:51:20;95817.78;;;8.32;100.00
3102;BME280;1561;42.666;23.392;2022-11-09T03:53:49;95828.69;;;8.34;100.00
3102;BME280;1561;42.666;23.392;2022-11-09T03:56:17;95823.59;;;8.20;100.00
3102;BME280;1561;42.666;23.392;2022-11-09T03:58:44;95789.13;;;8.02;100.00
3102;BME280;1561;42.666;23.392;2022-11-09T04:01:11;95819.72;;;8.14;100.00
3102;BME280;1561;42.666;23.392;2022-11-09T04:03:40;95822.38;;;7.99;100.00
3102;BME280;1561;42.666;23.392;2022-11-09T04:06:09;95826.84;;;7.95;100.00
3102;BME280;1561;42.666;23.392;2022-11-09T04:08:36;95821.09;;;7.92;100.00
3102;BME280;1561;42.666;23.392;2022-11-09T04:11:18;95814.50;;;7.75;100.00
3102;BME280;1561;42.666;23.392;2022-11-09T04:14:09;95825.41;;;7.77;100.00
3102;BME280;1561;42.666;23.392;2022-11-09T04:17:00;95813.06;;;7.57;100.00
3102;BME280;1561;42.666;23.392;2022-11-09T04:19:27;95822.75;;;7.51;100.00
3102;BME280;1561;42.666;23.392;2022-11-09T04:21:55;95778.28;;;7.44;100.00
3102;BME280;1561;42.666;23.392;2022-11-09T04:24:24;95815.03;;;7.66;100.00
3102;BME280;1561;42.666;23.392;2022-11-09T04:26:51;95779.56;;;7.23;100.00
3102;BME280;1561;42.666;23.392;2022-11-09T04:29:22;95802.44;;;7.23;100.00
3102;BME280;1561;42.666;23.392;2022-11-09T04:31:50;95819.84;;;7.43;100.00
3102;BME280;1561;42.666;23.392;2022-11-09T04:34:19;95812.38;;;7.26;100.00
3102;BME280;1561;42.666;23.392;2022-11-09T04:36:49;95819.41;;;7.36;100.00
3102;BME280;1561;42.666;23.392;2022-11-09T04:39:18;95820.22;;;7.37;100.00
3102;BME280;1561;42.666;23.392;2022-11-09T04:41:46;95820.31;;;7.35;100.00
3102;BME280;1561;42.666;23.392;2022-11-09T04:44:15;95819.06;;;7.42;100.00
3102;BME280;1561;42.666;23.392;2022-11-09T04:46:42;95824.31;;;7.39;100.00
3102;BME280;1561;42.666;23.392;2022-11-09T04:49:09;95808.97;;;7.41;100.00
3102;BME280;1561;42.666;23.392;2022-11-09T04:51:37;95739.69;;;6.95;100.00
3102;BME280;1561;42.666;23.392;2022-11-09T04:54:04;95825.69;;;7.45;100.00
3102;BME280;1561;42.666;23.392;2022-11-09T04:56:34;95825.94;;;7.40;100.00
3102;BME280;1561;42.666;23.392;2022-11-09T04:59:00;95837.84;;;7.40;100.00
3102;BME280;1561;42.666;23.392;2022-11-09T05:01:29;95837.38;;;7.47;100.00
3102;BME280;1561;42.666;23.392;2022-11-09T05:03:56;95841.66;;;7.47;100.00
3102;BME280;1561;42.666;23.392;2022-11-09T05:06:24;95835.31;;;7.40;100.00
3102;BME280;1561;42.666;23.392;2022-11-09T05:09:04;95794.97;;;7.20;100.00
3102;BME280;1561;42.666;23.392;2022-11-09T05:11:35;95834.66;;;7.50;100.00
3102;BME280;1561;42.666;23.392;2022-11-09T05:14:04;95844.00;;;7.50;100.00
3102;BME280;1561;42.666;23.392;2022-11-09T05:16:35;95761.13;;;7.19;100.00
3102;BME280;1561;42.666;23.392;2022-11-09T05:19:02;95842.72;;;7.57;100.00
3102;BME280;1561;42.666;23.392;2022-11-09T05:21:29;95841.38;;;7.51;100.00
3102;BME280;1561;42.666;23.392;2022-11-09T05:23:58;95846.47;;;7.65;100.00
3102;BME280;1561;42.666;23.392;2022-11-09T05:26:31;95846.84;;;7.73;100.00
3102;BME280;1561;42.666;23.392;2022-11-09T05:29:05;95842.53;;;8.02;100.00
3102;BME280;1561;42.666;23.392;2022-11-09T05:31:37;95852.50;;;8.05;100.00
3102;BME280;1561;42.666;23.392;2022-11-09T05:34:06;95842.25;;;8.20;100.00
3102;BME280;1561;42.666;23.392;2022-11-09T05:36:34;95837.47;;;8.02;100.00
3102;BME280;1561;42.666;23.392;2022-11-09T05:39:02;95851.06;;;8.29;100.00
3102;BME280;1561;42.666;23.392;2022-11-09T05:41:29;95857.50;;;8.34;100.00
3102;BME280;1561;42.666;23.392;2022-11-09T05:44:00;95838.63;;;8.24;100.00
3102;BME280;1561;42.666;23.392;2022-11-09T05:46:28;95856.38;;;8.38;100.00
3102;BME280;1561;42.666;23.392;2022-11-09T05:48:56;95827.72;;;8.49;100.00
3102;BME280;1561;42.666;23.392;2022-11-09T05:51:25;95860.41;;;8.69;100.00
3102;BME280;1561;42.666;23.392;2022-11-09T05:53:52;95860.44;;;8.81;100.00
3102;BME280;1561;42.666;23.392;2022-11-09T05:56:22;95858.50;;;8.85;100.00
3102;BME280;1561;42.666;23.392;2022-11-09T05:58:48;95872.16;;;9.11;100.00
3102;BME280;1561;42.666;23.392;2022-11-09T06:01:19;95871.13;;;9.26;100.00
3102;BME280;1561;42.666;23.392;2022-11-09T06:03:47;95885.56;;;9.77;100.00
3102;BME280;1561;42.666;23.392;2022-11-09T06:06:16;95868.31;;;9.68;100.00
3102;BME280;1561;42.666;23.392;2022-11-09T06:08:45;95873.69;;;10.01;100.00
3102;BME280;1561;42.666;23.392;2022-11-09T06:11:36;95846.81;;;11.03;100.00
3102;BME280;1561;42.666;23.392;2022-11-09T06:14:04;95871.44;;;11.73;100.00
3102;BME280;1561;42.666;23.392;2022-11-09T06:16:33;95878.28;;;12.28;100.00
3102;BME280;1561;42.666;23.392;2022-11-09T06:19:05;95868.13;;;13.33;100.00
3102;BME280;1561;42.666;23.392;2022-11-09T06:21:33;95873.06;;;13.46;100.00
3102;BME280;1561;42.666;23.392;2022-11-09T06:24:01;95865.84;;;14.90;100.00
3102;BME280;1561;42.666;23.392;2022-11-09T06:26:29;95866.28;;;15.33;100.00
3102;BME280;1561;42.666;23.392;2022-11-09T06:28:56;95864.06;;;14.71;100.00
3102;BME280;1561;42.666;23.392;2022-11-09T06:31:22;95865.44;;;15.04;100.00
3102;BME280;1561;42.666;23.392;2022-11-09T06:33:49;95866.63;;;14.71;100.00
3102;BME280;1561;42.666;23.392;2022-11-09T06:36:19;95866.91;;;14.29;100.00
3102;BME280;1561;42.666;23.392;2022-11-09T06:38:50;95872.47;;;14.83;100.00
3102;BME280;1561;42.666;23.392;2022-11-09T06:41:19;95869.28;;;14.51;100.00
3102;BME280;1561;42.666;23.392;2022-11-09T06:43:46;95868.47;;;15.47;100.00
3102;BME280;1561;42.666;23.392;2022-11-09T06:46:14;95870.06;;;15.19;100.00
3102;BME280;1561;42.666;23.392;2022-11-09T06:48:42;95807.38;;;15.11;100.00
3102;BME280;1561;42.666;23.392;2022-11-09T06:51:10;95867.09;;;15.24;100.00
3102;BME280;1561;42.666;23.392;2022-11-09T06:53:38;95861.00;;;15.34;100.00
3102;BME280;1561;42.666;23.392;2022-11-09T06:56:09;95857.69;;;15.80;100.00
3102;BME280;1561;42.666;23.392;2022-11-09T06:58:36;95851.59;;;16.17;100.00
3102;BME280;1561;42.666;23.392;2022-11-09T07:01:07;95865.69;;;16.23;100.00
3102;BME280;1561;42.666;23.392;2022-11-09T07:03:35;95812.25;;;16.15;100.00
3102;BME280;1561;42.666;23.392;2022-11-09T07:06:04;95851.28;;;16.84;100.00
3102;BME280;1561;42.666;23.392;2022-11-09T07:08:31;95868.03;;;17.15;100.00
3102;BME280;1561;42.666;23.392;2022-11-09T07:11:04;95858.19;;;18.56;99.33
3102;BME280;1561;42.666;23.392;2022-11-09T07:13:31;95869.34;;;17.37;100.00
3102;BME280;1561;42.666;23.392;2022-11-09T07:15:59;95858.28;;;16.74;100.00
3102;BME280;1561;42.666;23.392;2022-11-09T07:18:26;95856.28;;;17.03;100.00
3102;BME280;1561;42.666;23.392;2022-11-09T07:20:53;95861.84;;;17.61;100.00
3102;BME280;1561;42.666;23.392;2022-11-09T07:23:21;95857.34;;;17.45;100.00
3102;BME280;1561;42.666;23.392;2022-11-09T07:25:52;95856.41;;;18.31;97.36
3102;BME280;1561;42.666;23.392;2022-11-09T07:28:20;95850.19;;;17.57;100.00
3102;BME280;1561;42.666;23.392;2022-11-09T07:30:49;95852.75;;;17.82;100.00
3102;BME280;1561;42.666;23.392;2022-11-09T07:33:18;95842.63;;;19.13;92.90
3102;BME280;1561;42.666;23.392;2022-11-09T07:35:45;95848.03;;;19.52;85.86
3102;BME280;1561;42.666;23.392;2022-11-09T07:38:14;95843.13;;;20.82;76.71
3102;BME280;1561;42.666;23.392;2022-11-09T07:40:41;95852.25;;;19.37;84.92
3102;BME280;1561;42.666;23.392;2022-11-09T07:43:09;95838.38;;;20.00;81.89
3102;BME280;1561;42.666;23.392;2022-11-09T07:45:49;95837.38;;;20.25;75.04
3102;BME280;1561;42.666;23.392;2022-11-09T07:48:17;95847.66;;;19.95;78.79
3102;BME280;1561;42.666;23.392;2022-11-09T07:50:44;95840.34;;;20.14;77.71
3102;BME280;1561;42.666;23.392;2022-11-09T07:53:13;95853.25;;;18.78;88.77
3102;BME280;1561;42.666;23.392;2022-11-09T07:55:42;95845.59;;;19.74;81.15
3102;BME280;1561;42.666;23.392;2022-11-09T07:58:11;95849.41;;;20.18;77.23
3102;BME280;1561;42.666;23.392;2022-11-09T08:00:42;95848.13;;;20.61;75.63
3102;BME280;1561;42.666;23.392;2022-11-09T08:03:09;95844.50;;;20.31;76.95
3102;BME280;1561;42.666;23.392;2022-11-09T08:05:36;95847.09;;;20.70;72.75
3102;BME280;1561;42.666;23.392;2022-11-09T08:08:05;95844.84;;;20.97;70.79
3102;BME280;1561;42.666;23.392;2022-11-09T08:10:34;95857.75;;;18.76;86.98
3102;BME280;1561;42.666;23.392;2022-11-09T08:13:03;95846.44;;;18.69;89.60
3102;BME280;1561;42.666;23.392;2022-11-09T08:15:31;95843.66;;;19.36;87.76
3102;BME280;1561;42.666;23.392;2022-11-09T08:18:02;95857.56;;;18.70;92.39
3102;BME280;1561;42.666;23.392;2022-11-09T08:20:32;95839.81;;;20.65;81.57
3102;BME280;1561;42.666;23.392;2022-11-09T08:23:00;95842.41;;;21.26;71.25
3102;BME280;1561;42.666;23.392;2022-11-09T08:25:27;95856.31;;;21.56;69.52
3102;BME280;1561;42.666;23.392;2022-11-09T08:27:56;95851.03;;;20.03;80.54
3102;BME280;1561;42.666;23.392;2022-11-09T08:30:23;95814.59;;;19.89;78.70
3102;BME280;1561;42.666;23.392;2022-11-09T08:32:51;95847.13;;;19.03;87.31
3102;BME280;1561;42.666;23.392;2022-11-09T08:35:22;95847.66;;;19.07;90.86
3102;BME280;1561;42.666;23.392;2022-11-09T08:37:50;95845.31;;;18.88;92.77
3102;BME280;1561;42.666;23.392;2022-11-09T08:40:20;95850.72;;;20.14;84.41
3102;BME280;1561;42.666;23.392;2022-11-09T08:42:47;95854.94;;;21.45;72.58
3102;BME280;1561;42.666;23.392;2022-11-09T08:45:14;95855.44;;;19.95;80.95
3102;BME280;1561;42.666;23.392;2022-11-09T08:47:45;95757.34;;;20.45;77.44
3102;BME280;1561;42.666;23.392;2022-11-09T08:50:13;95847.59;;;21.49;72.74
3102;BME280;1561;42.666;23.392;2022-11-09T08:52:41;95848.81;;;21.38;73.16
3102;BME280;1561;42.666;23.392;2022-11-09T08:55:08;95841.84;;;22.27;66.34
3102;BME280;1561;42.666;23.392;2022-11-09T08:57:35;95847.09;;;21.90;68.07
3102;BME280;1561;42.666;23.392;2022-11-09T09:00:03;95844.84;;;21.87;66.20
3102;BME280;1561;42.666;23.392;2022-11-09T09:02:33;95840.53;;;21.57;68.72
3102;BME280;1561;42.666;23.392;2022-11-09T09:05:01;95842.28;;;21.42;67.01
3102;BME280;1561;42.666;23.392;2022-11-09T09:07:30;95832.00;;;21.26;72.47
3102;BME280;1561;42.666;23.392;2022-11-09T09:10:01;95841.31;;;20.98;72.40
3102;BME280;1561;42.666;23.392;2022-11-09T09:12:31;95843.81;;;20.45;79.11
3102;BME280;1561;42.666;23.392;2022-11-09T09:15:00;95831.19;;;21.03;75.25
3102;BME280;1561;42.666;23.392;2022-11-09T09:17:35;95839.28;;;22.05;65.45
3102;BME280;1561;42.666;23.392;2022-11-09T09:20:09;95815.41;;;21.27;68.94
3102;BME280;1561;42.666;23.392;2022-11-09T09:22:39;95846.78;;;18.90;85.96
3102;BME280;1561;42.666;23.392;2022-11-09T09:25:10;95840.66;;;21.64;69.07
3102;BME280;1561;42.666;23.392;2022-11-09T09:27:37;95832.66;;;22.75;63.09
3102;BME280;1561;42.666;23.392;2022-11-09T09:30:08;95831.13;;;21.93;64.52
3102;BME280;1561;42.666;23.392;2022-11-09T09:32:35;95833.78;;;21.26;69.00
3102;BME280;1561;42.666;23.392;2022-11-09T09:35:06;95829.81;;;21.38;68.89
3102;BME280;1561;42.666;23.392;2022-11-09T09:37:48;95829.81;;;21.38;66.49
3102;BME280;1561;42.666;23.392;2022-11-09T09:40:23;95828.94;;;21.00;69.85
3102;BME280;1561;42.666;23.392;2022-11-09T09:42:53;95826.56;;;22.10;64.08
3102;BME280;1561;42.666;23.392;2022-11-09T09:45:29;95772.03;;;23.23;57.98
3102;BME280;1561;42.666;23.392;2022-11-09T09:48:02;95804.16;;;22.73;61.49
3102;BME280;1561;42.666;23.392;2022-11-09T09:50:47;95808.00;;;23.13;58.27
3102;BME280;1561;42.666;23.392;2022-11-09T09:53:25;95804.75;;;22.90;58.70
3102;BME280;1561;42.666;23.392;2022-11-09T09:56:10;95805.13;;;22.08;61.05
3102;BME280;1561;42.666;23.392;2022-11-09T09:58:43;95779.56;;;23.33;56.53
3102;BME280;1561;42.666;23.392;2022-11-09T10:01:17;95801.59;;;22.44;61.43
3102;BME280;1561;42.666;23.392;2022-11-09T10:03:46;95799.78;;;20.82;67.24
3102;BME280;1561;42.666;23.392;2022-11-09T10:06:36;95787.69;;;22.87;58.26
3102;BME280;1561;42.666;23.392;2022-11-09T10:09:17;95771.41;;;23.70;53.50
3102;BME280;1561;42.666;23.392;2022-11-09T10:12:07;95789.75;;;22.42;56.79
3102;BME280;1561;42.666;23.392;2022-11-09T10:15:10;95801.69;;;21.56;60.65
3102;BME280;1561;42.666;23.392;2022-11-09T10:17:52;95785.41;;;22.78;59.78
3102;BME280;1561;42.666;23.392;2022-11-09T10:20:46;95759.00;;;22.02;59.96
3102;BME280;1561;42.666;23.392;2022-11-09T10:23:30;95785.75;;;22.75;58.14
3102;BME280;1561;42.666;23.392;2022-11-09T10:26:15;95793.00;;;22.00;60.65
3102;BME280;1561;42.666;23.392;2022-11-09T10:28:53;95776.22;;;22.46;59.99
3102;BME280;1561;42.666;23.392;2022-11-09T10:31:32;95767.69;;;21.94;60.96
3102;BME280;1561;42.666;23.392;2022-11-09T10:34:13;95769.19;;;22.61;58.76
3102;BME280;1561;42.666;23.392;2022-11-09T10:36:48;95766.75;;;21.21;64.04
3102;BME280;1561;42.666;23.392;2022-11-09T10:39:22;95752.22;;;21.64;63.41
3102;BME280;1561;42.666;23.392;2022-11-09T10:41:51;95757.84;;;20.93;66.21
3102;BME280;1561;42.666;23.392;2022-11-09T10:44:30;95768.63;;;21.27;65.23
3102;BME280;1561;42.666;23.392;2022-11-09T10:47:14;95741.88;;;21.41;63.53
3102;BME280;1561;42.666;23.392;2022-11-09T10:49:43;95744.25;;;21.65;62.67
3102;BME280;1561;42.666;23.392;2022-11-09T10:52:34;95756.59;;;21.63;61.36
3102;BME280;1561;42.666;23.392;2022-11-09T10:55:18;95746.66;;;22.39;58.63
3102;BME280;1561;42.666;23.392;2022-11-09T10:58:00;95741.78;;;21.72;60.55
3102;BME280;1561;42.666;23.392;2022-11-09T11:00:55;95745.53;;;21.98;60.02
3102;BME280;1561;42.666;23.392;2022-11-09T11:03:23;95736.88;;;22.27;57.14
3102;BME280;1561;42.666;23.392;2022-11-09T11:05:59;95727.41;;;20.79;65.62
3102;BME280;1561;42.666;23.392;2022-11-09T11:08:35;95736.13;;;21.97;59.53
3102;BME280;1561;42.666;23.392;2022-11-09T11:11:23;95732.59;;;22.19;57.86
3102;BME280;1561;42.666;23.392;2022-11-09T11:14:16;95735.72;;;20.52;66.60
3102;BME280;1561;42.666;23.392;2022-11-09T11:16:46;95742.56;;;21.72;61.87
3102;BME280;1561;42.666;23.392;2022-11-09T11:19:26;95734.34;;;20.64;65.80
3102;BME280;1561;42.666;23.392;2022-11-09T11:22:23;95737.53;;;21.85;60.83
3102;BME280;1561;42.666;23.392;2022-11-09T11:24:54;95742.81;;;21.63;60.87
3102;BME280;1561;42.666;23.392;2022-11-09T11:27:27;95719.72;;;21.82;61.07
3102;BME280;1561;42.666;23.392;2022-11-09T11:30:03;95722.34;;;22.18;59.22
3102;BME280;1561;42.666;23.392;2022-11-09T11:32:35;95715.88;;;21.27;61.41
3102;BME280;1561;42.666;23.392;2022-11-09T11:35:04;95720.00;;;21.50;61.17
3102;BME280;1561;42.666;23.392;2022-11-09T11:37:55;95715.97;;;20.88;64.97
3102;BME280;1561;42.666;23.392;2022-11-09T11:40:32;95717.09;;;21.31;61.73
3102;BME280;1561;42.666;23.392;2022-11-09T11:43:26;95710.41;;;20.99;62.59
3102;BME280;1561;42.666;23.392;2022-11-09T11:46:03;95704.75;;;21.62;60.99
3102;BME280;1561;42.666;23.392;2022-11-09T11:49:04;95713.22;;;20.14;67.66
3102;BME280;1561;42.666;23.392;2022-11-09T11:51:41;95707.84;;;20.46;68.00
3102;BME280;1561;42.666;23.392;2022-11-09T11:54:16;95697.75;;;20.51;67.17
3102;BME280;1561;42.666;23.392;2022-11-09T11:56:50;95693.63;;;21.39;62.41
3102;BME280;1561;42.666;23.392;2022-11-09T11:59:34;95707.63;;;19.08;76.12
3102;BME280;1561;42.666;23.392;2022-11-09T12:02:40;95700.84;;;19.78;72.88
3102;BME280;1561;42.666;23.392;2022-11-09T12:06:08;95706.78;;;19.94;71.86
3102;BME280;1561;42.666;23.392;2022-11-09T12:08:50;95691.06;;;19.96;71.22
3102;BME280;1561;42.666;23.392;2022-11-09T12:11:34;95711.50;;;19.44;74.53
3102;BME280;1561;42.666;23.392;2022-11-09T12:14:14;95704.16;;;20.10;72.52
3102;BME280;1561;42.666;23.392;2022-11-09T12:16:55;95699.31;;;19.99;71.24
3102;BME280;1561;42.666;23.392;2022-11-09T12:19:40;95684.38;;;19.63;72.80
3102;BME280;1561;42.666;23.392;2022-11-09T12:22:31;95697.38;;;20.01;72.41
3102;BME280;1561;42.666;23.392;2022-11-09T12:25:15;95691.75;;;20.28;70.10
3102;BME280;1561;42.666;23.392;2022-11-09T12:27:53;95697.13;;;19.02;78.43
3102;BME280;1561;42.666;23.392;2022-11-09T12:30:30;95655.84;;;18.92;78.62
3102;BME280;1561;42.666;23.392;2022-11-09T12:33:11;95602.31;;;18.53;78.39
3102;BME280;1561;42.666;23.392;2022-11-09T12:35:45;95689.66;;;18.51;84.26
3102;BME280;1561;42.666;23.392;2022-11-09T12:38:22;95693.34;;;18.40;85.66
3102;BME280;1561;42.666;23.392;2022-11-09T12:40:54;95683.19;;;18.87;82.63
3102;BME280;1561;42.666;23.392;2022-11-09T12:43:32;95689.06;;;18.07;89.94
3102;BME280;1561;42.666;23.392;2022-11-09T12:46:05;95682.78;;;18.26;87.73
3102;BME280;1561;42.666;23.392;2022-11-09T12:48:36;95694.66;;;17.95;92.21
3102;BME280;1561;42.666;23.392;2022-11-09T12:51:06;95688.88;;;18.01;91.54
3102;BME280;1561;42.666;23.392;2022-11-09T12:53:37;95685.59;;;17.91;92.98
3102;BME280;1561;42.666;23.392;2022-11-09T12:56:14;95686.59;;;17.98;93.26
3102;BME280;1561;42.666;23.392;2022-11-09T12:58:45;95499.25;;;17.03;91.55
3102;BME280;1561;42.666;23.392;2022-11-09T13:04:05;95680.00;;;18.11;92.61
3102;BME280;1561;42.666;23.392;2022-11-09T13:06:34;95677.59;;;18.10;91.08
3102;BME280;1561;42.666;23.392;2022-11-09T13:09:04;95653.41;;;17.77;94.57
3102;BME280;1561;42.666;23.392;2022-11-09T13:11:36;95662.25;;;18.16;91.47
3102;BME280;1561;42.666;23.392;2022-11-09T13:14:31;95673.22;;;17.61;96.94
3102;BME280;1561;42.666;23.392;2022-11-09T13:17:00;95670.88;;;17.50;98.14
3102;BME280;1561;42.666;23.392;2022-11-09T13:19:49;95673.41;;;17.16;100.00
3102;BME280;1561;42.666;23.392;2022-11-09T13:25:52;95669.00;;;17.34;99.65
3102;BME280;1561;42.666;23.392;2022-11-09T13:34:45;95663.53;;;17.37;98.98
3102;BME280;1561;42.666;23.392;2022-11-09T13:37:44;95676.41;;;17.55;97.47
3102;BME280;1561;42.666;23.392;2022-11-09T13:40:39;95676.19;;;17.74;96.22
3102;BME280;1561;42.666;23.392;2022-11-09T13:43:16;95650.41;;;17.56;96.80
3102;BME280;1561;42.666;23.392;2022-11-09T13:45:48;95677.31;;;17.46;98.66
3102;BME280;1561;42.666;23.392;2022-11-09T13:48:39;95675.91;;;17.26;100.00
3102;BME280;1561;42.666;23.392;2022-11-09T13:51:09;95594.47;;;16.80;100.00